首页
METAR-TAF:

METAR-TAF

机场 :

阿道弗·苏亚雷斯马德里-巴拉哈斯机场

马德里, 西班牙

纬度: 40-27N, 经度: 003-33W, 海拔: 609米

当前天气观测

该预报发布于37分钟前的16:00 UTC
风速7节,风向西南
温度 11°C
湿度 76%
气压 1012 hPa
能见度10公里或以上
散云层高于3500英尺
多云层高于8000英尺

METAR: LEMD 211600Z 23007KT 9999 SCT035 BKN080 11/07 Q1012 NOSIG

时间: 17:37 (16:37 UTC)

预报

该预报发布于5小时和37分钟前的11:00 UTC
预报有效从21日的 12点(UTC)到 22日的 18点(UTC)
风速10节,风向西南
能见度10公里或以上
散云层高于3000英尺
几率 30% :
短暂存在
从 21日的 12点(UTC)到 21日的 14点(UTC)
能見度: 4000
多云层高于1200英尺
短暂存在
从 21日的 12点(UTC)到 21日的 16点(UTC)
风速15节,风向西南,有时为25节阵风
几率 30% :
短暂存在
从 21日的 14点(UTC)到 21日的 17点(UTC)
能見度: 4900
少量云层高于3000英尺, 塔状积云.
阵雨
成为
从 21日的 19点(UTC)到 21日的 21点(UTC)
风速3节,风向多变
几率 40% :
短暂存在
从 21日的 23点(UTC)到 22日的 10点(UTC)
能見度: 3000
多云层高于1200英尺
轻雾
几率 30% :
短暂存在
从 22日的 03点(UTC)到 22日的 08点(UTC)
能見度: 0800
多云层高于400英尺
碎片雾

TAF: LEMD 211100Z 2112/2218 22010KT 9999 SCT030 TX13/2115Z TN04/2200Z PROB30 TEMPO 2112/2114 4000 RA BKN012 TEMPO 2112/2116 22015G25KT PROB30 TEMPO 2114/2117 4900 SHRA FEW030TCU BECMG 2119/2121 VRB03KT PROB40 TEMPO 2123/2210 3000 BR BKN012 PROB30 TEMPO 2203/2208 0800 BCFG BKN004

超过4000个机场的气象观测和天气预报(METAR&TAF报告)。

可查询的气象台以黄色和红色小点在地图上表示。

将鼠标移到小点上方,可查看气象台名称。

然后点击查看天气观测和预报。

如需切换地图:点击带黑十字的绿色按钮放大地图;点击带横线的绿色按钮缩小地图;或者点击绿色箭头查看邻近地区的地图。


METAR-TAF: